createdAt,value
2019-03-19T00:01:05.308Z,0.53
2019-03-19T00:03:33.981Z,1.15
2019-03-19T00:06:02.634Z,1.20
2019-03-19T00:08:31.296Z,1.10
2019-03-19T00:10:59.913Z,0.82
2019-03-19T00:13:28.524Z,0.82
2019-03-19T00:15:57.448Z,1.55
2019-03-19T00:18:26.045Z,0.88
2019-03-19T00:20:54.680Z,1.10
2019-03-19T00:23:23.297Z,0.75
2019-03-19T00:25:53.175Z,1.15
2019-03-19T00:28:21.856Z,1.52
2019-03-19T00:30:50.549Z,1.35
2019-03-19T00:33:19.230Z,1.22
2019-03-19T00:35:47.929Z,2.27
2019-03-19T00:38:16.521Z,1.20
2019-03-19T00:40:45.401Z,0.65
2019-03-19T00:43:14.072Z,0.68
2019-03-19T00:45:43.214Z,0.80
2019-03-19T00:48:11.897Z,1.67
2019-03-19T00:50:40.585Z,1.37
2019-03-19T00:53:09.556Z,1.32
2019-03-19T00:55:40.903Z,2.58
2019-03-19T00:58:08.526Z,1.50
2019-03-19T01:00:37.204Z,1.10
2019-03-19T01:03:05.832Z,1.22
2019-03-19T01:05:34.777Z,1.27
2019-03-19T01:08:03.540Z,0.70
2019-03-19T01:10:32.174Z,0.68
2019-03-19T01:13:01.882Z,1.05
2019-03-19T01:15:30.567Z,0.80
2019-03-19T01:17:59.204Z,1.30
2019-03-19T01:20:28.313Z,0.85
2019-03-19T01:22:57.169Z,1.17
2019-03-19T01:25:25.853Z,0.80
2019-03-19T01:27:54.756Z,2.72
2019-03-19T01:30:23.641Z,1.77
2019-03-19T01:32:52.557Z,1.10
2019-03-19T01:35:21.416Z,0.90
2019-03-19T01:37:50.020Z,2.02
2019-03-19T01:40:18.908Z,1.25
2019-03-19T01:42:47.520Z,1.00
2019-03-19T01:45:16.402Z,1.27
2019-03-19T01:47:45.072Z,1.32
2019-03-19T01:50:14.040Z,0.82
2019-03-19T01:52:42.672Z,0.62
2019-03-19T01:55:11.637Z,1.05
2019-03-19T01:57:40.320Z,0.85
2019-03-19T02:00:09.573Z,1.30
2019-03-19T02:02:38.199Z,1.47
2019-03-19T02:05:06.943Z,1.17
2019-03-19T02:07:35.834Z,1.50
2019-03-19T02:10:04.826Z,1.98
2019-03-19T02:12:33.773Z,1.95
2019-03-19T02:15:02.368Z,0.65
2019-03-19T02:17:30.964Z,1.70
2019-03-19T02:19:59.568Z,1.10
2019-03-19T02:22:28.505Z,2.12
2019-03-19T02:24:57.427Z,2.15
2019-03-19T02:27:26.366Z,1.20
2019-03-19T02:29:55.363Z,1.12
2019-03-19T02:32:24.006Z,0.98
2019-03-19T02:34:52.707Z,1.02
2019-03-19T02:37:21.392Z,0.98
2019-03-19T02:39:50.311Z,0.60
2019-03-19T02:42:19.334Z,1.10
2019-03-19T02:44:48.008Z,2.47
2019-03-19T02:47:16.697Z,0.62
2019-03-19T02:49:45.306Z,1.25
2019-03-19T02:52:14.153Z,2.12
2019-03-19T02:54:42.825Z,0.75
2019-03-19T02:57:11.434Z,1.22
2019-03-19T02:59:40.133Z,0.98
2019-03-19T03:02:08.839Z,1.32
2019-03-19T03:04:37.525Z,0.88
2019-03-19T03:07:06.236Z,1.17
2019-03-19T03:09:35.165Z,1.25
2019-03-19T03:12:03.860Z,1.15
2019-03-19T03:14:32.550Z,1.05
2019-03-19T03:17:01.252Z,0.42
2019-03-19T03:19:30.093Z,1.30
2019-03-19T03:21:58.802Z,1.72
2019-03-19T03:24:27.710Z,1.05
2019-03-19T03:26:56.641Z,1.98
2019-03-19T03:29:25.311Z,0.98
2019-03-19T03:31:54.184Z,0.68
2019-03-19T03:34:23.351Z,1.00
2019-03-19T03:36:52.272Z,1.35
2019-03-19T03:39:20.942Z,0.55
2019-03-19T03:41:50.133Z,1.25
2019-03-19T03:44:18.813Z,0.40
2019-03-19T03:46:47.434Z,0.72
2019-03-19T03:49:16.110Z,1.35
2019-03-19T03:51:45.050Z,0.50
2019-03-19T03:54:13.659Z,1.00
2019-03-19T03:56:42.584Z,1.87
2019-03-19T03:59:11.266Z,1.10
2019-03-19T04:01:40.642Z,0.82
2019-03-19T04:04:09.490Z,1.25
2019-03-19T04:06:38.126Z,1.40
2019-03-19T04:09:09.298Z,1.27
2019-03-19T04:11:37.776Z,0.72
2019-03-19T04:14:06.384Z,1.77
2019-03-19T04:16:35.077Z,1.25
2019-03-19T04:19:03.843Z,0.80
2019-03-19T04:21:32.782Z,3.45
2019-03-19T04:24:01.497Z,1.10
2019-03-19T04:26:30.153Z,1.55
2019-03-19T04:28:58.782Z,1.05
2019-03-19T04:31:27.468Z,1.05
2019-03-19T04:33:56.140Z,1.90
2019-03-19T04:36:25.022Z,0.82
2019-03-19T04:38:53.925Z,1.12
2019-03-19T04:41:22.805Z,0.90
2019-03-19T04:43:51.729Z,0.50
2019-03-19T04:46:20.344Z,2.27
2019-03-19T04:48:49.816Z,1.12
2019-03-19T04:51:18.502Z,1.95
2019-03-19T04:53:47.092Z,2.72
2019-03-19T04:56:15.712Z,0.80
2019-03-19T04:58:44.588Z,1.15
2019-03-19T05:01:13.212Z,1.02
2019-03-19T05:03:41.812Z,1.80
2019-03-19T05:06:10.431Z,1.02
2019-03-19T05:08:39.104Z,0.65
2019-03-19T05:11:07.977Z,0.90
2019-03-19T05:13:36.830Z,1.12
2019-03-19T05:16:05.733Z,0.88
2019-03-19T05:18:34.927Z,0.75
2019-03-19T05:21:03.621Z,0.80
2019-03-19T05:23:32.225Z,0.90
2019-03-19T05:26:01.080Z,0.80
2019-03-19T05:28:29.672Z,0.62
2019-03-19T05:30:58.292Z,1.35
2019-03-19T05:33:26.901Z,2.33
2019-03-19T05:35:55.633Z,1.00
2019-03-19T05:38:24.828Z,0.85
2019-03-19T05:40:53.989Z,0.75
2019-03-19T05:43:22.588Z,0.90
2019-03-19T05:45:51.229Z,1.22
2019-03-19T05:48:19.917Z,0.88
2019-03-19T05:50:48.865Z,1.35
2019-03-19T05:53:17.541Z,0.88
2019-03-19T05:55:46.190Z,0.53
2019-03-19T05:58:15.041Z,1.15
2019-03-19T06:00:43.664Z,1.07
2019-03-19T06:03:12.515Z,0.88
2019-03-19T06:05:41.204Z,0.55
2019-03-19T06:08:09.805Z,1.15
2019-03-19T06:10:38.662Z,1.55
2019-03-19T06:13:07.333Z,1.07
2019-03-19T06:15:35.952Z,0.93
2019-03-19T06:18:04.648Z,0.95
2019-03-19T06:20:33.349Z,1.47
2019-03-19T06:23:01.944Z,0.93
2019-03-19T06:25:30.847Z,0.95
2019-03-19T06:28:00.889Z,1.02
2019-03-19T06:30:29.657Z,1.17
2019-03-19T06:32:58.277Z,0.80
2019-03-19T06:35:27.486Z,0.60
2019-03-19T06:37:56.084Z,0.85
2019-03-19T06:40:24.692Z,1.37
2019-03-19T06:42:53.290Z,0.70
2019-03-19T06:45:23.171Z,0.53
2019-03-19T06:47:52.099Z,1.67
2019-03-19T06:50:20.804Z,1.37
2019-03-19T06:52:49.737Z,1.00
2019-03-19T06:55:18.391Z,1.10
2019-03-19T06:57:47.331Z,0.88
2019-03-19T07:00:17.341Z,1.10
2019-03-19T07:02:46.537Z,1.37
2019-03-19T07:05:15.225Z,1.17
2019-03-19T07:07:43.845Z,1.47
2019-03-19T07:10:12.865Z,1.57
2019-03-19T07:12:41.468Z,0.65
2019-03-19T07:15:11.765Z,1.27
2019-03-19T07:17:40.388Z,0.88
2019-03-19T07:20:10.933Z,1.55
2019-03-19T07:22:39.529Z,1.57
2019-03-19T07:25:08.277Z,0.88
2019-03-19T07:27:36.959Z,0.62
2019-03-19T07:30:07.289Z,0.90
2019-03-19T07:32:35.913Z,3.65
2019-03-19T07:35:04.808Z,1.75
2019-03-19T07:37:33.729Z,3.77
2019-03-19T07:40:02.331Z,5.40
2019-03-19T07:42:31.553Z,2.62
2019-03-19T07:45:00.388Z,2.40
2019-03-19T07:47:29.276Z,3.95
2019-03-19T07:49:57.869Z,3.80
2019-03-19T07:52:26.488Z,6.12
2019-03-19T07:54:55.113Z,5.08
2019-03-19T07:57:24.057Z,4.37
2019-03-19T07:59:53.274Z,4.40
2019-03-19T08:02:22.314Z,3.02
2019-03-19T08:04:51.236Z,2.27
2019-03-19T08:07:20.198Z,2.08
2019-03-19T08:09:48.888Z,4.22
2019-03-19T08:12:17.793Z,3.90
2019-03-19T08:14:46.396Z,3.52
2019-03-19T08:17:15.249Z,4.42
2019-03-19T08:19:44.084Z,5.40
2019-03-19T08:22:12.715Z,3.37
2019-03-19T08:24:41.655Z,8.50
2019-03-19T08:27:10.344Z,2.60
2019-03-19T08:29:38.961Z,4.87
2019-03-19T08:32:07.649Z,3.55
2019-03-19T08:34:36.424Z,5.78
2019-03-19T08:37:05.184Z,8.80
2019-03-19T08:39:34.064Z,7.92
2019-03-19T08:42:02.767Z,5.78
2019-03-19T08:44:31.381Z,4.58
2019-03-19T08:47:00.358Z,6.25
2019-03-19T08:49:29.246Z,7.10
2019-03-19T08:51:58.148Z,7.70
2019-03-19T08:54:26.756Z,8.75
2019-03-19T08:56:55.653Z,9.15
2019-03-19T08:59:24.348Z,9.83
2019-03-19T09:01:53.040Z,4.10
2019-03-19T09:04:22.984Z,5.80
2019-03-19T09:06:51.857Z,7.40
2019-03-19T09:09:20.460Z,5.67
2019-03-19T09:11:49.587Z,5.28
2019-03-19T09:14:18.783Z,8.13
2019-03-19T09:16:47.960Z,4.83
2019-03-19T09:19:16.583Z,4.87
2019-03-19T09:21:45.529Z,4.33
2019-03-19T09:24:14.385Z,5.17
2019-03-19T09:26:43.008Z,8.65
2019-03-19T09:29:16.692Z,6.60
2019-03-19T09:31:42.285Z,8.70
2019-03-19T09:34:10.906Z,13.13
2019-03-19T09:36:39.878Z,10.60
2019-03-19T09:39:08.894Z,15.55
2019-03-19T09:41:38.009Z,20.05
2019-03-19T09:44:06.871Z,9.55
2019-03-19T09:46:35.564Z,12.88
2019-03-19T09:49:04.430Z,9.70
2019-03-19T09:51:33.386Z,12.18
2019-03-19T09:54:02.254Z,10.28
2019-03-19T09:56:30.968Z,19.40
2019-03-19T09:58:59.581Z,10.03
2019-03-19T10:01:28.463Z,9.33
2019-03-19T10:03:57.534Z,9.78
2019-03-19T10:06:26.148Z,12.35
2019-03-19T10:08:54.764Z,11.95
2019-03-19T10:11:23.881Z,10.75
2019-03-19T10:13:52.493Z,18.45
2019-03-19T10:16:21.205Z,16.15
2019-03-19T10:18:49.884Z,13.18
2019-03-19T10:21:18.848Z,19.50
2019-03-19T10:23:47.460Z,17.30
2019-03-19T10:26:16.163Z,21.45
2019-03-19T10:28:44.841Z,24.45
2019-03-19T10:31:13.728Z,19.70
2019-03-19T10:33:42.434Z,18.62
2019-03-19T10:36:11.305Z,23.50
2019-03-19T10:38:40.103Z,24.57
2019-03-19T10:41:08.792Z,29.50
2019-03-19T10:43:37.729Z,33.42
2019-03-19T10:46:06.389Z,30.92
2019-03-19T10:48:35.276Z,34.38
2019-03-19T10:51:03.979Z,34.75
2019-03-19T10:53:33.152Z,49.05
2019-03-19T10:56:01.929Z,36.88
2019-03-19T10:58:30.536Z,41.00
2019-03-19T11:00:59.156Z,41.50
2019-03-19T11:03:28.299Z,61.23
2019-03-19T11:05:56.921Z,46.13
2019-03-19T11:08:25.608Z,41.75
2019-03-19T11:10:54.785Z,47.50
2019-03-19T11:13:23.445Z,57.93
2019-03-19T11:15:52.056Z,57.35
2019-03-19T11:18:20.656Z,47.20
2019-03-19T11:20:49.584Z,53.60
2019-03-19T11:23:18.750Z,60.63
2019-03-19T11:25:54.522Z,51.23
2019-03-19T11:28:18.017Z,54.67
2019-03-19T11:30:46.641Z,53.98
2019-03-19T11:33:15.337Z,53.63
2019-03-19T11:35:45.733Z,60.48
2019-03-19T11:38:14.428Z,58.10
2019-03-19T11:40:43.049Z,48.98
2019-03-19T11:43:11.651Z,56.85
2019-03-19T11:45:40.349Z,57.23
2019-03-19T11:48:08.965Z,52.62
2019-03-19T11:50:37.858Z,50.80
2019-03-19T11:53:06.548Z,44.80
2019-03-19T11:55:35.428Z,51.68
2019-03-19T11:58:04.081Z,66.12
2019-03-19T12:00:35.188Z,59.03
2019-03-19T12:03:14.799Z,58.08
2019-03-19T12:05:34.509Z,65.70
2019-03-19T12:08:03.423Z,66.50
2019-03-19T12:10:32.381Z,72.42
2019-03-19T12:13:01.060Z,75.17
2019-03-19T12:15:29.761Z,91.35
2019-03-19T12:17:58.693Z,79.95
2019-03-19T12:20:27.573Z,84.85
2019-03-19T12:22:56.265Z,88.85
2019-03-19T12:25:25.213Z,97.47
2019-03-19T12:27:53.893Z,97.40
2019-03-19T12:30:25.943Z,101.90
2019-03-19T12:32:53.144Z,117.33
2019-03-19T12:35:22.166Z,112.15
2019-03-19T12:37:51.048Z,109.67
2019-03-19T12:40:20.010Z,120.50
2019-03-19T12:42:48.629Z,125.07
2019-03-19T12:45:17.292Z,124.50
2019-03-19T12:47:45.986Z,149.53
2019-03-19T12:50:15.780Z,135.05
2019-03-19T12:52:44.485Z,137.35
2019-03-19T12:55:13.177Z,140.28
2019-03-19T12:57:41.876Z,138.70
2019-03-19T13:00:13.508Z,140.32
2019-03-19T14:32:25.469Z,121.07
2019-03-19T14:34:54.456Z,124.82
2019-03-19T14:37:23.449Z,125.02
2019-03-19T14:39:52.438Z,122.75
2019-03-19T14:42:21.418Z,116.00
2019-03-19T14:44:50.353Z,119.17
2019-03-19T14:47:19.233Z,118.55
2019-03-19T14:49:49.967Z,120.85
2019-03-19T14:52:18.244Z,116.40
2019-03-19T14:54:46.850Z,114.92
2019-03-19T14:57:15.493Z,116.77
2019-03-19T14:59:44.097Z,118.00
2019-03-19T15:02:12.724Z,115.40
2019-03-19T15:04:41.641Z,114.75
2019-03-19T15:07:10.341Z,112.10
2019-03-19T15:09:38.960Z,113.65
2019-03-19T15:12:07.586Z,109.90
2019-03-19T15:14:36.275Z,111.72
2019-03-19T15:17:05.354Z,111.37
2019-03-19T15:19:34.324Z,110.25
2019-03-19T15:22:03.204Z,110.25
2019-03-19T15:24:31.882Z,111.08
2019-03-19T15:27:00.582Z,108.55
2019-03-19T15:29:29.185Z,107.65
2019-03-19T15:31:58.123Z,106.90
2019-03-19T15:34:27.055Z,108.32
2019-03-19T15:36:55.769Z,107.63
2019-03-19T15:39:24.373Z,105.80
2019-03-19T15:41:52.992Z,106.63
2019-03-19T15:44:21.601Z,104.23
2019-03-19T15:46:50.216Z,105.72
2019-03-19T15:49:18.841Z,100.97
2019-03-19T15:51:47.455Z,105.75
2019-03-19T15:54:16.375Z,102.32
2019-03-19T15:56:45.321Z,103.60
2019-03-19T15:59:14.285Z,99.40
2019-03-19T16:01:42.907Z,99.55
2019-03-19T16:04:11.812Z,100.12
2019-03-19T16:06:40.440Z,100.65
2019-03-19T16:09:09.692Z,98.35
2019-03-19T16:11:38.373Z,97.67
2019-03-19T16:14:07.049Z,99.25
2019-03-19T16:16:35.997Z,98.45
2019-03-19T16:19:04.612Z,99.83
2019-03-19T16:21:33.261Z,96.15
2019-03-19T16:24:02.027Z,96.22
2019-03-19T16:26:30.728Z,97.97
2019-03-19T16:28:59.330Z,97.60
2019-03-19T16:31:27.953Z,94.65
2019-03-19T16:33:56.824Z,92.90
2019-03-19T16:36:25.455Z,95.12
2019-03-19T16:38:54.145Z,95.90
2019-03-19T16:41:22.997Z,94.05
2019-03-19T16:43:51.602Z,91.42
2019-03-19T16:46:20.294Z,91.05
2019-03-19T16:48:48.992Z,92.08
2019-03-19T16:51:17.606Z,92.00
2019-03-19T16:53:46.271Z,93.27
2019-03-19T16:56:14.894Z,91.45
2019-03-19T16:58:43.496Z,92.67
2019-03-19T17:01:12.117Z,91.55
2019-03-19T17:03:40.969Z,88.62
2019-03-19T17:06:09.600Z,91.32
2019-03-19T17:08:38.194Z,88.65
2019-03-19T17:11:06.884Z,89.07
2019-03-19T17:13:35.491Z,89.90
2019-03-19T17:16:04.365Z,90.15
2019-03-19T17:18:33.035Z,90.87
2019-03-19T17:21:01.937Z,88.25
2019-03-19T17:23:30.544Z,88.97
2019-03-19T17:25:59.427Z,85.95
2019-03-19T17:28:28.173Z,86.57
2019-03-19T17:30:57.021Z,88.00
2019-03-19T17:33:25.633Z,87.80
2019-03-19T17:35:54.316Z,85.15
2019-03-19T17:38:22.917Z,85.97
2019-03-19T17:40:51.534Z,83.25
2019-03-19T17:43:20.145Z,86.02
2019-03-19T17:45:48.785Z,85.85
2019-03-19T17:48:17.565Z,82.22
2019-03-19T17:50:47.164Z,82.72
2019-03-19T17:53:15.784Z,81.37
2019-03-19T17:55:44.436Z,82.05
2019-03-19T17:58:13.112Z,83.05
2019-03-19T18:00:42.185Z,81.37
2019-03-19T18:03:10.786Z,85.12
2019-03-19T18:05:39.471Z,84.37
2019-03-19T18:08:08.142Z,79.95
2019-03-19T18:10:36.816Z,81.87
2019-03-19T18:13:06.600Z,82.25
2019-03-19T18:15:35.577Z,81.60
2019-03-19T18:18:04.190Z,82.50
2019-03-19T18:20:32.888Z,79.80
2019-03-19T18:23:01.848Z,80.70
2019-03-19T18:25:30.810Z,80.03
2019-03-19T18:27:59.625Z,79.03
2019-03-19T18:30:28.502Z,77.50
2019-03-19T18:32:57.408Z,78.40
2019-03-19T18:35:26.022Z,83.12
2019-03-19T18:37:54.694Z,80.45
2019-03-19T18:40:23.589Z,78.22
2019-03-19T18:42:52.784Z,79.37
2019-03-19T18:45:21.780Z,78.67
2019-03-19T18:47:50.473Z,79.00
2019-03-19T18:50:19.454Z,76.35
2019-03-19T18:52:48.192Z,74.58
2019-03-19T18:55:16.894Z,76.35
2019-03-19T18:57:45.846Z,79.42
2019-03-19T19:00:15.150Z,77.03
2019-03-19T19:02:49.847Z,76.25
2019-03-19T19:05:14.194Z,74.15
2019-03-19T19:07:42.899Z,74.47
2019-03-19T19:10:11.922Z,74.25
2019-03-19T19:12:40.596Z,74.82
2019-03-19T19:15:10.942Z,76.12
2019-03-19T19:17:39.839Z,75.32
2019-03-19T19:20:10.864Z,75.20
2019-03-19T19:22:39.557Z,74.05
2019-03-19T19:25:09.972Z,71.25
2019-03-19T19:27:38.602Z,73.42
2019-03-19T19:30:09.320Z,72.22
2019-03-19T19:32:38.185Z,74.35
2019-03-19T19:35:07.023Z,72.50
2019-03-19T19:37:35.753Z,70.03
2019-03-19T19:40:04.640Z,70.42
2019-03-19T19:42:33.525Z,71.22
2019-03-19T19:45:02.143Z,71.57
2019-03-19T19:47:30.850Z,69.97
2019-03-19T19:49:59.528Z,69.37
2019-03-19T19:52:28.168Z,71.67
2019-03-19T19:54:57.145Z,69.37
2019-03-19T19:57:25.822Z,70.25
2019-03-19T19:59:54.505Z,68.15
2019-03-19T20:02:23.740Z,68.65
2019-03-19T20:05:02.358Z,69.35
2019-03-19T20:07:22.749Z,67.75
2019-03-19T20:09:51.349Z,68.90
2019-03-19T20:12:19.960Z,68.95
2019-03-19T20:14:48.813Z,68.40
2019-03-19T20:17:17.739Z,71.17
2019-03-19T20:19:46.739Z,68.22
2019-03-19T20:22:15.677Z,69.42
2019-03-19T20:24:44.277Z,69.12
2019-03-19T20:27:12.916Z,68.85
2019-03-19T20:29:41.774Z,66.17
2019-03-19T20:32:10.469Z,66.95
2019-03-19T20:34:39.072Z,68.92
2019-03-19T20:37:08.008Z,66.97
2019-03-19T20:39:36.685Z,67.53
2019-03-19T20:42:05.302Z,66.97
2019-03-19T20:44:33.973Z,66.50
2019-03-19T20:47:02.783Z,66.22
2019-03-19T20:49:31.621Z,65.45
2019-03-19T20:52:00.250Z,65.42
2019-03-19T20:54:28.933Z,64.45
2019-03-19T20:56:57.557Z,63.90
2019-03-19T20:59:26.425Z,62.73
2019-03-19T21:01:55.120Z,64.42
2019-03-19T21:04:23.721Z,64.45
2019-03-19T21:06:52.400Z,63.40
2019-03-19T21:09:21.001Z,65.47
2019-03-19T21:11:49.940Z,63.20
2019-03-19T21:14:18.835Z,65.03
2019-03-19T21:16:47.781Z,63.25
2019-03-19T21:19:16.684Z,64.20
2019-03-19T21:21:45.293Z,65.03
2019-03-19T21:24:13.898Z,65.12
2019-03-19T21:26:42.600Z,63.30
2019-03-19T21:29:11.273Z,62.67
2019-03-19T21:31:40.116Z,62.40
2019-03-19T21:34:08.721Z,61.50
2019-03-19T21:36:37.623Z,62.20
2019-03-19T21:39:07.624Z,59.38
2019-03-19T21:41:36.497Z,60.80
2019-03-19T21:44:05.379Z,60.45
2019-03-19T21:46:34.068Z,61.15
2019-03-19T21:49:02.945Z,61.50
2019-03-19T21:51:31.818Z,60.80
2019-03-19T21:54:00.497Z,60.40
2019-03-19T21:56:29.124Z,59.60
2019-03-19T21:58:57.817Z,61.08
2019-03-19T22:01:26.436Z,59.10
2019-03-19T22:04:02.677Z,59.75
2019-03-19T22:06:25.630Z,59.80
2019-03-19T22:08:54.310Z,61.33
2019-03-19T22:11:23.262Z,59.38
2019-03-19T22:13:52.197Z,58.75
2019-03-19T22:16:21.073Z,58.87
2019-03-19T22:18:49.684Z,57.48
2019-03-19T22:21:18.321Z,58.28
2019-03-19T22:23:47.243Z,58.25
2019-03-19T22:26:15.938Z,58.15
2019-03-19T22:28:44.621Z,58.15
2019-03-19T22:31:13.317Z,59.03
2019-03-19T22:33:41.925Z,59.42
2019-03-19T22:36:11.952Z,57.90
2019-03-19T22:38:40.736Z,57.50
2019-03-19T22:41:09.364Z,57.60
2019-03-19T22:43:38.273Z,55.80
2019-03-19T22:46:06.961Z,57.00
2019-03-19T22:48:36.157Z,58.23
2019-03-19T22:51:04.806Z,56.28
2019-03-19T22:53:33.477Z,55.55
2019-03-19T22:56:02.104Z,57.60
2019-03-19T22:58:30.770Z,54.88
2019-03-19T23:00:59.405Z,55.30
2019-03-19T23:03:28.332Z,56.30
2019-03-19T23:05:56.984Z,54.93
2019-03-19T23:08:25.913Z,52.73
2019-03-19T23:10:54.529Z,55.20
2019-03-19T23:13:23.386Z,53.98
2019-03-19T23:15:52.001Z,55.38
2019-03-19T23:18:20.685Z,55.52
2019-03-19T23:20:49.309Z,52.60
2019-03-19T23:23:17.912Z,53.87
2019-03-19T23:25:47.098Z,54.67
2019-03-19T23:28:15.772Z,52.65
2019-03-19T23:30:44.392Z,53.68
2019-03-19T23:33:12.985Z,53.05
2019-03-19T23:35:41.614Z,54.13
2019-03-19T23:38:10.464Z,51.42
2019-03-19T23:40:39.181Z,51.55
2019-03-19T23:43:08.083Z,53.87
2019-03-19T23:45:36.981Z,52.95
2019-03-19T23:48:05.644Z,53.30
2019-03-19T23:50:34.259Z,50.78
2019-03-19T23:53:02.904Z,51.33
2019-03-19T23:55:31.588Z,50.63
2019-03-19T23:58:00.521Z,51.13
